Terminal Aerodrome Forecast
Issued by NWS

Home | Current Version | Previous Version | Text Only | Print | Product List | Glossary On
Versions: 1 2 3 4 5 6 7 8 9 10 11 12 13 14 15 16 17 18 19
000
FTUS43 KIND 221900 AAA
TAFLAF
TAF AMD
KLAF 221945Z 2220/2318 12010KT 5SM -RA BR SCT009 OVC015
     FM222300 13011KT 2SM -RA BR SCT004 OVC007
     FM230800 17011G17KT 4SM -RA BR OVC008
     FM231200 22007KT 5SM BR VCSH OVC025
     FM231700 22006KT P6SM OVC040=

USA.gov is the U.S. government's official web portal to all federal, state and local government web resources and services.